createdAt,value
2017-12-23T00:00:13.570Z,25.33
2017-12-23T00:02:41.384Z,27.30
2017-12-23T00:05:09.394Z,29.57
2017-12-23T00:07:37.272Z,25.90
2017-12-23T00:10:05.116Z,22.67
2017-12-23T00:12:33.726Z,24.60
2017-12-23T00:15:01.605Z,23.20
2017-12-23T00:17:29.483Z,20.83
2017-12-23T00:19:57.355Z,24.43
2017-12-23T00:22:25.191Z,24.30
2017-12-23T00:24:52.982Z,25.93
2017-12-23T00:27:20.779Z,26.67
2017-12-23T00:29:48.714Z,22.43
2017-12-23T00:32:16.608Z,20.80
2017-12-23T00:34:44.427Z,23.23
2017-12-23T00:37:12.287Z,25.87
2017-12-23T00:39:40.207Z,26.50
2017-12-23T00:42:08.072Z,20.63
2017-12-23T00:44:35.907Z,21.17
2017-12-23T00:47:03.737Z,20.63
2017-12-23T00:49:31.577Z,17.63
2017-12-23T00:51:59.409Z,16.20
2017-12-23T00:54:27.321Z,17.17
2017-12-23T00:56:55.231Z,19.00
2017-12-23T00:59:23.048Z,16.90
2017-12-23T01:01:50.937Z,15.83
2017-12-23T01:04:18.750Z,15.77
2017-12-23T01:06:46.609Z,16.43
2017-12-23T01:09:15.307Z,15.57
2017-12-23T01:11:43.177Z,18.10
2017-12-23T01:14:11.784Z,15.00
2017-12-23T01:16:39.647Z,19.30
2017-12-23T01:19:07.515Z,16.20
2017-12-23T01:21:35.351Z,14.77
2017-12-23T01:24:03.176Z,17.20
2017-12-23T01:26:31.037Z,15.47
2017-12-23T01:28:58.929Z,17.23
2017-12-23T01:31:26.754Z,15.20
2017-12-23T01:33:54.638Z,14.97
2017-12-23T01:36:22.524Z,12.33
2017-12-23T01:38:50.360Z,14.33
2017-12-23T01:41:18.289Z,17.97
2017-12-23T01:43:46.142Z,12.87
2017-12-23T01:46:14.001Z,12.80
2017-12-23T01:48:41.858Z,13.30
2017-12-23T01:51:09.677Z,14.50
2017-12-23T01:53:37.489Z,14.03
2017-12-23T01:56:05.386Z,14.23
2017-12-23T01:58:33.263Z,12.70
2017-12-23T02:01:01.142Z,12.73
2017-12-23T02:03:28.979Z,12.53
2017-12-23T02:05:56.869Z,13.37
2017-12-23T02:08:24.709Z,12.13
2017-12-23T02:10:52.575Z,16.80
2017-12-23T02:13:20.457Z,15.17
2017-12-23T02:15:48.392Z,17.90
2017-12-23T02:18:16.281Z,17.33
2017-12-23T02:20:44.108Z,15.70
2017-12-23T02:23:12.069Z,14.83
2017-12-23T02:25:39.939Z,18.40
2017-12-23T02:28:07.756Z,15.13
2017-12-23T02:30:35.632Z,15.73
2017-12-23T02:33:03.450Z,13.93
2017-12-23T02:35:31.330Z,16.73
2017-12-23T02:38:00.705Z,16.67
2017-12-23T02:40:28.617Z,16.77
2017-12-23T02:42:56.540Z,17.30
2017-12-23T02:45:24.436Z,16.60
2017-12-23T02:47:52.334Z,15.37
2017-12-23T02:50:20.295Z,16.80
2017-12-23T02:52:48.132Z,18.33
2017-12-23T02:55:16.052Z,20.30
2017-12-23T02:57:43.937Z,18.73
2017-12-23T03:00:11.862Z,16.20
2017-12-23T03:02:39.766Z,18.60
2017-12-23T03:05:07.640Z,18.27
2017-12-23T03:07:35.540Z,20.57
2017-12-23T03:10:03.477Z,17.73
2017-12-23T03:12:31.279Z,18.17
2017-12-23T03:14:59.194Z,18.43
2017-12-23T03:17:27.105Z,18.30
2017-12-23T03:19:54.946Z,16.77
2017-12-23T03:22:22.916Z,18.20
2017-12-23T03:24:51.180Z,17.07
2017-12-23T03:27:19.253Z,15.80
2017-12-23T03:29:47.953Z,19.27
2017-12-23T03:32:15.774Z,18.10
2017-12-23T03:34:43.625Z,17.63
2017-12-23T03:37:11.525Z,16.57
2017-12-23T03:39:39.413Z,18.37
2017-12-23T03:42:08.359Z,15.63
2017-12-23T03:44:36.227Z,15.07
2017-12-23T03:47:04.118Z,16.60
2017-12-23T03:49:31.984Z,17.07
2017-12-23T03:51:59.850Z,16.80
2017-12-23T03:54:27.752Z,14.73
2017-12-23T03:56:55.686Z,17.27
2017-12-23T03:59:23.881Z,13.93
2017-12-23T04:01:51.789Z,14.77
2017-12-23T04:04:19.664Z,13.20
2017-12-23T04:06:47.547Z,13.93
2017-12-23T04:09:15.383Z,15.13
2017-12-23T04:11:43.293Z,13.77
2017-12-23T04:14:11.199Z,13.87
2017-12-23T04:16:39.035Z,13.53
2017-12-23T04:19:06.969Z,14.50
2017-12-23T04:21:34.867Z,13.90
2017-12-23T04:24:02.752Z,13.70
2017-12-23T04:26:30.640Z,13.67
2017-12-23T04:29:02.849Z,12.50
2017-12-23T04:31:30.790Z,11.10
2017-12-23T04:33:58.714Z,16.00
2017-12-23T04:36:26.620Z,11.00
2017-12-23T04:38:54.516Z,11.03
2017-12-23T04:41:22.380Z,10.40
2017-12-23T04:43:50.250Z,10.80
2017-12-23T04:46:18.129Z,10.20
2017-12-23T04:48:45.987Z,10.20
2017-12-23T04:51:13.846Z,10.70
2017-12-23T04:53:41.677Z,9.67
2017-12-23T04:56:09.575Z,10.10
2017-12-23T04:58:37.416Z,12.40
2017-12-23T05:01:05.328Z,8.07
2017-12-23T05:03:33.938Z,10.73
2017-12-23T05:06:01.791Z,11.10
2017-12-23T05:08:29.598Z,10.30
2017-12-23T05:10:57.506Z,8.30
2017-12-23T05:13:25.370Z,11.80
2017-12-23T05:15:54.084Z,9.07
2017-12-23T05:18:21.922Z,11.50
2017-12-23T05:20:52.187Z,9.20
2017-12-23T05:23:20.010Z,9.40
2017-12-23T05:25:47.857Z,11.90
2017-12-23T05:28:15.927Z,11.30
2017-12-23T05:30:43.763Z,10.90
2017-12-23T05:33:11.660Z,8.50
2017-12-23T05:35:39.440Z,11.27
2017-12-23T05:38:10.772Z,9.33
2017-12-23T05:41:11.951Z,8.07
2017-12-23T07:41:51.323Z,7.50
2017-12-23T07:44:19.163Z,7.53
2017-12-23T07:46:47.842Z,10.70
2017-12-23T07:49:15.699Z,13.23
2017-12-23T07:51:43.614Z,18.97
2017-12-23T07:54:11.521Z,9.90
2017-12-23T07:56:39.462Z,5.30
2017-12-23T07:59:07.310Z,6.00
2017-12-23T08:01:35.277Z,5.80
2017-12-23T08:04:04.404Z,5.80
2017-12-23T08:06:32.320Z,10.47
2017-12-23T08:09:00.180Z,15.40
2017-12-23T08:11:28.076Z,13.80
2017-12-23T08:13:55.916Z,9.73
2017-12-23T08:16:23.729Z,6.77
2017-12-23T08:18:51.636Z,11.03
2017-12-23T08:21:19.540Z,6.60
2017-12-23T08:23:47.353Z,4.60
2017-12-23T08:26:15.286Z,7.00
2017-12-23T08:28:43.140Z,5.47
2017-12-23T08:31:11.047Z,10.17
2017-12-23T08:33:38.890Z,14.33
2017-12-23T08:36:06.753Z,7.73
2017-12-23T08:38:34.665Z,9.63
2017-12-23T08:41:02.611Z,5.90
2017-12-23T08:43:30.415Z,7.43
2017-12-23T08:45:58.338Z,6.20
2017-12-23T08:48:26.146Z,14.80
2017-12-23T08:50:54.045Z,10.83
2017-12-23T08:53:21.860Z,11.17
2017-12-23T08:55:49.684Z,10.20
2017-12-23T08:58:17.497Z,6.23
2017-12-23T09:00:46.398Z,7.03
2017-12-23T09:03:14.301Z,17.23
2017-12-23T09:05:42.215Z,9.13
2017-12-23T09:08:10.910Z,10.40
2017-12-23T09:10:38.940Z,8.33
2017-12-23T09:13:06.765Z,6.67
2017-12-23T09:15:34.596Z,6.30
2017-12-23T09:18:02.450Z,7.03
2017-12-23T09:20:30.307Z,9.83
2017-12-23T09:22:58.188Z,7.17
2017-12-23T09:25:57.264Z,9.93
2017-12-23T09:28:25.225Z,16.97
2017-12-23T09:30:53.074Z,12.00
2017-12-23T09:33:20.940Z,12.60
2017-12-23T09:35:48.815Z,9.10
2017-12-23T09:38:17.054Z,13.60
2017-12-23T09:40:44.952Z,7.03
2017-12-23T09:43:13.024Z,6.00
2017-12-23T09:45:40.898Z,11.57
2017-12-23T09:48:08.870Z,6.80
2017-12-23T09:50:36.930Z,11.60
2017-12-23T09:53:04.910Z,6.70
2017-12-23T09:55:32.877Z,9.60
2017-12-23T09:58:00.734Z,7.60
2017-12-23T10:00:28.703Z,6.60
2017-12-23T10:02:56.572Z,11.90
2017-12-23T10:05:24.446Z,9.37
2017-12-23T10:07:52.302Z,11.17
2017-12-23T10:10:20.278Z,9.70
2017-12-23T10:12:48.341Z,11.50
2017-12-23T10:15:16.265Z,9.63
2017-12-23T10:17:44.192Z,8.17
2017-12-23T10:20:12.045Z,5.43
2017-12-23T10:22:39.917Z,8.60
2017-12-23T10:25:07.992Z,11.10
2017-12-23T10:27:35.947Z,7.07
2017-12-23T10:30:03.927Z,7.63
2017-12-23T10:32:31.899Z,10.20
2017-12-23T10:34:59.973Z,14.70
2017-12-23T10:37:28.036Z,14.70
2017-12-23T10:39:55.901Z,11.87
2017-12-23T10:42:23.965Z,18.03
2017-12-23T10:44:51.843Z,13.13
2017-12-23T10:47:21.759Z,15.30
2017-12-23T10:49:49.613Z,16.93
2017-12-23T10:52:17.600Z,17.13
2017-12-23T10:54:45.449Z,15.37
2017-12-23T10:57:13.322Z,15.50
2017-12-23T10:59:41.404Z,20.13
2017-12-23T11:02:09.355Z,18.90
2017-12-23T11:04:37.221Z,25.70
2017-12-23T11:07:05.097Z,25.83
2017-12-23T11:09:32.957Z,29.83
2017-12-23T11:12:00.822Z,24.67
2017-12-23T11:14:28.591Z,28.43
2017-12-23T11:16:56.457Z,23.07
2017-12-23T11:19:24.317Z,26.00
2017-12-23T11:21:52.189Z,37.93
2017-12-23T11:24:20.051Z,32.27
2017-12-23T11:26:47.916Z,27.90
2017-12-23T11:29:15.791Z,26.37
2017-12-23T11:31:43.662Z,32.77
2017-12-23T11:34:12.512Z,32.47
2017-12-23T11:36:44.989Z,31.13
2017-12-23T11:39:13.400Z,30.80
2017-12-23T11:41:41.317Z,38.93
2017-12-23T11:44:09.339Z,38.90
2017-12-23T11:46:37.297Z,31.63
2017-12-23T11:49:05.189Z,36.70
2017-12-23T11:51:33.814Z,42.33
2017-12-23T11:54:01.665Z,41.00
2017-12-23T11:56:29.498Z,41.77
2017-12-23T11:58:57.370Z,40.33
2017-12-23T12:01:25.207Z,36.90
2017-12-23T12:03:53.011Z,35.10
2017-12-23T12:06:21.589Z,29.43
2017-12-23T12:08:51.072Z,35.23
2017-12-23T12:11:18.920Z,33.77
2017-12-23T12:13:46.767Z,30.20
2017-12-23T12:16:14.740Z,30.63
2017-12-23T12:18:42.643Z,29.30
2017-12-23T12:21:10.829Z,26.70
2017-12-23T12:23:39.397Z,32.67
2017-12-23T12:26:07.218Z,24.33
2017-12-23T12:28:35.049Z,27.73
2017-12-23T12:31:04.452Z,27.70
2017-12-23T12:33:33.054Z,26.37
2017-12-23T12:36:00.954Z,24.47
2017-12-23T12:38:29.374Z,21.70
2017-12-23T12:40:57.237Z,27.63
2017-12-23T12:43:25.159Z,21.43
2017-12-23T12:45:53.004Z,21.50
2017-12-23T12:48:20.844Z,26.00
2017-12-23T12:50:49.521Z,25.83
2017-12-23T12:53:17.379Z,27.40
2017-12-23T12:55:45.186Z,23.33
2017-12-23T12:58:12.983Z,23.83
2017-12-23T13:00:40.868Z,25.70
2017-12-23T13:03:23.667Z,25.70
2017-12-23T13:08:26.113Z,26.30
2017-12-23T13:10:55.292Z,27.43
2017-12-23T13:13:37.432Z,26.67
2017-12-23T13:16:08.040Z,31.00
2017-12-23T13:18:36.998Z,37.40
2017-12-23T13:21:06.681Z,24.87
2017-12-23T13:23:38.347Z,31.67
2017-12-23T13:26:07.492Z,30.47
2017-12-23T13:28:37.414Z,29.37
2017-12-23T13:31:07.258Z,28.63
2017-12-23T13:33:36.678Z,28.53
2017-12-23T13:36:07.351Z,28.53
2017-12-23T13:38:35.500Z,29.07
2017-12-23T13:41:05.181Z,31.43
2017-12-23T13:43:33.885Z,29.47
2017-12-23T13:46:01.871Z,29.17
2017-12-23T13:48:31.461Z,28.87
2017-12-23T13:50:59.440Z,28.87
2017-12-23T13:53:27.399Z,33.97
2017-12-23T13:55:55.365Z,29.50
2017-12-23T13:58:23.344Z,31.27
2017-12-23T14:00:51.415Z,31.70
2017-12-23T14:03:21.620Z,35.63
2017-12-23T14:05:51.319Z,32.87
2017-12-23T14:08:20.592Z,39.47
2017-12-23T14:10:50.198Z,40.43
2017-12-23T14:13:18.637Z,35.17
2017-12-23T14:15:46.489Z,43.57
2017-12-23T14:18:14.274Z,42.17
2017-12-23T14:20:42.182Z,40.33
2017-12-23T14:23:09.986Z,41.67
2017-12-23T14:25:37.799Z,39.90
2017-12-23T14:28:05.688Z,42.83
2017-12-23T14:30:35.739Z,47.67
2017-12-23T14:33:04.492Z,48.00
2017-12-23T14:35:32.354Z,46.17
2017-12-23T14:38:00.143Z,46.60
2017-12-23T14:40:28.006Z,48.53
2017-12-23T14:42:55.855Z,46.30
2017-12-23T14:45:23.665Z,46.60
2017-12-23T14:47:52.653Z,48.50
2017-12-23T14:50:20.719Z,51.47
2017-12-23T14:52:49.430Z,51.90
2017-12-23T14:55:18.089Z,53.80
2017-12-23T14:57:46.057Z,53.43
2017-12-23T15:00:15.598Z,52.40
2017-12-23T15:02:45.824Z,57.63
2017-12-23T15:05:14.724Z,58.30
2017-12-23T15:07:42.703Z,55.50
2017-12-23T15:10:10.653Z,53.47
2017-12-23T15:12:39.612Z,57.23
2017-12-23T15:15:07.468Z,53.50
2017-12-23T15:17:35.444Z,50.80
2017-12-23T15:20:03.312Z,53.40
2017-12-23T15:22:31.059Z,52.70
2017-12-23T15:24:58.872Z,50.07
2017-12-23T15:27:27.405Z,53.07
2017-12-23T15:29:55.213Z,53.47
2017-12-23T15:32:23.833Z,54.87
2017-12-23T15:34:51.676Z,57.23
2017-12-23T15:37:19.504Z,59.30
2017-12-23T15:39:47.346Z,57.53
2017-12-23T15:42:15.187Z,56.43
2017-12-23T15:44:42.964Z,50.83
2017-12-23T15:47:10.776Z,53.37
2017-12-23T15:49:38.532Z,64.67
2017-12-23T15:52:06.289Z,56.97
2017-12-23T15:54:34.105Z,62.10
2017-12-23T15:57:01.879Z,68.13
2017-12-23T15:59:29.714Z,88.20
2017-12-23T16:01:59.287Z,70.47
2017-12-23T16:04:27.067Z,66.20
2017-12-23T16:06:54.835Z,65.80
2017-12-23T16:09:23.372Z,62.70
2017-12-23T16:11:51.264Z,57.50
2017-12-23T16:14:19.033Z,53.47
2017-12-23T16:16:46.794Z,54.97
2017-12-23T16:19:14.565Z,60.97
2017-12-23T16:21:42.332Z,60.73
2017-12-23T16:24:10.206Z,58.40
2017-12-23T16:26:38.322Z,58.63
2017-12-23T16:29:06.126Z,59.33
2017-12-23T16:31:33.990Z,52.87
2017-12-23T16:34:02.012Z,60.00
2017-12-23T16:36:29.870Z,56.00
2017-12-23T16:38:58.495Z,62.83
2017-12-23T16:41:27.014Z,55.13
2017-12-23T16:43:54.827Z,57.73
2017-12-23T16:46:22.712Z,72.93
2017-12-23T16:48:51.334Z,60.50
2017-12-23T16:51:19.637Z,59.70
2017-12-23T16:53:47.458Z,61.40
2017-12-23T16:56:15.302Z,58.60
2017-12-23T16:58:43.123Z,58.00
2017-12-23T17:01:11.693Z,61.57
2017-12-23T17:03:40.456Z,56.00
2017-12-23T17:06:08.313Z,50.10
2017-12-23T17:08:36.087Z,58.07
2017-12-23T17:11:03.913Z,53.80
2017-12-23T17:13:31.767Z,54.90
2017-12-23T17:15:59.594Z,55.67
2017-12-23T17:18:27.503Z,54.73
2017-12-23T17:20:55.269Z,57.37
2017-12-23T17:23:23.130Z,55.07
2017-12-23T17:25:50.885Z,54.23
2017-12-23T17:28:18.800Z,54.93
2017-12-23T17:30:46.603Z,49.73
2017-12-23T17:33:15.207Z,54.03
2017-12-23T17:35:43.559Z,49.83
2017-12-23T17:38:12.281Z,55.50
2017-12-23T17:40:40.375Z,56.77
2017-12-23T17:43:08.164Z,52.00
2017-12-23T17:45:35.991Z,52.37
2017-12-23T17:48:03.981Z,57.80
2017-12-23T17:50:32.180Z,55.90
2017-12-23T17:53:00.141Z,55.40
2017-12-23T17:55:28.020Z,54.57
2017-12-23T17:57:56.924Z,48.90
2017-12-23T18:00:26.020Z,55.73
2017-12-23T18:02:55.189Z,54.90
2017-12-23T18:05:23.175Z,50.23
2017-12-23T18:07:52.081Z,50.27
2017-12-23T18:10:20.011Z,51.67
2017-12-23T18:12:48.592Z,51.00
2017-12-23T18:15:16.720Z,45.77
2017-12-23T18:17:45.118Z,51.30
2017-12-23T18:20:13.669Z,50.23
2017-12-23T18:22:42.331Z,49.50
2017-12-23T18:25:12.223Z,47.53
2017-12-23T18:27:40.061Z,47.37
2017-12-23T18:30:09.475Z,47.10
2017-12-23T18:32:37.623Z,47.10
2017-12-23T18:35:05.478Z,55.77
2017-12-23T18:37:36.156Z,51.30
2017-12-23T18:40:05.870Z,55.00
2017-12-23T18:42:34.593Z,58.60
2017-12-23T18:45:02.413Z,55.90
2017-12-23T18:47:30.218Z,54.13
2017-12-23T18:49:58.068Z,62.23
2017-12-23T18:52:26.595Z,47.23
2017-12-23T18:54:54.411Z,54.60
2017-12-23T18:57:22.290Z,49.13
2017-12-23T18:59:50.887Z,49.00
2017-12-23T19:02:18.702Z,56.00
2017-12-23T19:04:46.544Z,55.93
2017-12-23T19:07:14.301Z,48.03
2017-12-23T19:09:42.255Z,48.60
2017-12-23T19:12:09.987Z,52.33
2017-12-23T19:14:37.799Z,47.10
2017-12-23T19:17:05.663Z,46.40
2017-12-23T19:19:33.585Z,42.40
2017-12-23T19:22:02.265Z,41.80
2017-12-23T19:24:30.152Z,47.93
2017-12-23T19:27:04.273Z,43.57
2017-12-23T19:29:34.044Z,49.47
2017-12-23T19:32:01.921Z,61.30
2017-12-23T19:34:29.968Z,48.53
2017-12-23T19:36:57.989Z,52.07
2017-12-23T19:39:39.928Z,56.00
2017-12-23T19:42:30.726Z,63.70
2017-12-23T19:44:58.586Z,56.80
2017-12-23T19:47:26.464Z,61.20
2017-12-23T19:49:54.431Z,50.77
2017-12-23T19:52:22.289Z,58.77
2017-12-23T19:54:50.157Z,56.83
2017-12-23T19:57:18.135Z,64.67
2017-12-23T19:59:45.990Z,55.47
2017-12-23T20:02:13.972Z,51.83
2017-12-23T20:04:43.832Z,49.47
2017-12-23T20:07:14.486Z,52.00
2017-12-23T20:09:44.220Z,50.50
2017-12-23T20:12:12.916Z,51.03
2017-12-23T20:14:42.991Z,45.93
2017-12-23T20:17:12.681Z,48.97
2017-12-23T20:19:42.492Z,45.60
2017-12-23T20:22:11.600Z,46.63
2017-12-23T20:24:41.339Z,41.97
2017-12-23T20:27:11.063Z,41.03
2017-12-23T20:29:39.502Z,35.63
2017-12-23T20:32:09.667Z,42.93
2017-12-23T20:34:39.254Z,44.73
2017-12-23T20:37:08.005Z,45.00
2017-12-23T20:39:36.843Z,44.10
2017-12-23T20:42:05.672Z,38.00
2017-12-23T20:44:35.543Z,43.03
2017-12-23T20:47:05.619Z,51.30
2017-12-23T20:49:34.769Z,45.90
2017-12-23T20:52:02.630Z,45.67
2017-12-23T20:54:30.594Z,45.73
2017-12-23T20:56:58.521Z,43.63
2017-12-23T20:59:26.541Z,40.80
2017-12-23T21:01:54.363Z,37.20
2017-12-23T21:04:22.117Z,33.13
2017-12-23T21:06:49.877Z,35.60
2017-12-23T21:09:17.646Z,38.80
2017-12-23T21:11:45.558Z,31.53
2017-12-23T21:14:13.379Z,35.97
